createdAt,value
2019-04-11T00:00:39.721Z,7.35
2019-04-11T00:03:27.877Z,7.25
2019-04-11T00:06:17.201Z,7.14
2019-04-11T00:09:08.341Z,7.20
2019-04-11T00:11:56.026Z,7.22
2019-04-11T00:14:44.175Z,7.18
2019-04-11T00:17:34.201Z,7.00
2019-04-11T00:20:22.482Z,7.12
2019-04-11T00:23:10.440Z,7.04
2019-04-11T00:25:59.979Z,7.09
2019-04-11T00:28:50.074Z,6.83
2019-04-11T00:31:39.094Z,6.84
2019-04-11T00:34:27.427Z,6.85
2019-04-11T00:37:16.886Z,6.88
2019-04-11T00:40:05.924Z,7.03
2019-04-11T00:42:54.736Z,7.02
2019-04-11T00:45:43.486Z,6.98
2019-04-11T00:48:32.056Z,7.05
2019-04-11T00:51:20.328Z,7.25
2019-04-11T00:54:08.812Z,7.20
2019-04-11T00:56:57.014Z,6.65
2019-04-11T00:59:45.118Z,6.67
2019-04-11T01:02:33.662Z,6.70
2019-04-11T01:05:22.087Z,6.72
2019-04-11T01:08:11.499Z,6.68
2019-04-11T01:10:59.860Z,6.83
2019-04-11T01:13:52.425Z,6.76
2019-04-11T01:17:03.221Z,6.50
2019-04-11T01:19:51.565Z,6.69
2019-04-11T01:22:42.895Z,6.84
2019-04-11T01:25:32.605Z,6.60
2019-04-11T01:28:20.884Z,6.53
2019-04-11T01:31:11.570Z,6.74
2019-04-11T01:34:00.246Z,6.92
2019-04-11T01:36:48.367Z,7.02
2019-04-11T01:40:13.796Z,7.09
2019-04-11T01:43:01.968Z,7.13
2019-04-11T01:45:49.739Z,7.31
2019-04-11T01:49:00.021Z,7.43
2019-04-11T01:51:47.927Z,7.15
2019-04-11T01:54:35.702Z,6.77
2019-04-11T01:57:24.120Z,6.76
2019-04-11T02:00:19.678Z,6.74
2019-04-11T02:03:09.288Z,6.69
2019-04-11T02:05:57.282Z,6.80
2019-04-11T02:08:45.377Z,7.03
2019-04-11T02:11:34.029Z,7.16
2019-04-11T02:14:22.597Z,7.32
2019-04-11T02:17:12.526Z,7.49
2019-04-11T02:20:00.709Z,7.57
2019-04-11T02:22:56.973Z,7.67
2019-04-11T02:26:03.688Z,7.79
2019-04-11T02:28:52.958Z,7.74
2019-04-11T02:31:42.421Z,7.47
2019-04-11T02:34:31.539Z,7.54
2019-04-11T02:37:20.309Z,7.42
2019-04-11T02:40:09.291Z,7.11
2019-04-11T02:42:59.391Z,7.16
2019-04-11T02:46:00.147Z,7.28
2019-04-11T02:48:37.717Z,7.39
2019-04-11T02:51:27.012Z,7.65
2019-04-11T02:54:15.908Z,7.70
2019-04-11T02:57:05.741Z,7.54
2019-04-11T02:59:56.054Z,7.59
2019-04-11T03:02:44.493Z,7.71
2019-04-11T03:05:35.200Z,7.79
2019-04-11T03:08:24.219Z,7.84
2019-04-11T03:11:11.972Z,7.83
2019-04-11T03:14:03.268Z,7.77
2019-04-11T03:17:02.496Z,7.85
2019-04-11T03:19:53.660Z,7.81
2019-04-11T03:22:32.170Z,7.74
2019-04-11T03:25:22.550Z,7.74
2019-04-11T03:28:14.763Z,7.66
2019-04-11T03:31:38.215Z,7.77
2019-04-11T03:39:52.097Z,7.83
2019-04-11T03:42:35.363Z,7.99
2019-04-11T03:45:34.362Z,7.98
2019-04-11T03:48:12.511Z,8.01
2019-04-11T03:50:49.030Z,7.99
2019-04-11T03:53:37.346Z,7.89
2019-04-11T03:56:26.622Z,7.76
2019-04-11T03:59:16.567Z,7.65
2019-04-11T04:02:05.815Z,7.62
2019-04-11T04:04:54.709Z,7.55
2019-04-11T04:07:44.366Z,7.49
2019-04-11T04:10:36.152Z,7.38
2019-04-11T04:13:27.710Z,7.39
2019-04-11T04:16:31.001Z,7.18
2019-04-11T04:19:37.672Z,7.04
2019-04-11T04:22:35.639Z,6.86
2019-04-11T04:25:24.355Z,6.79
2019-04-11T04:28:14.250Z,6.70
2019-04-11T04:31:02.203Z,6.58
2019-04-11T04:33:51.401Z,6.55
2019-04-11T04:36:40.333Z,6.55
2019-04-11T04:39:29.911Z,6.48
2019-04-11T04:42:26.330Z,6.42
2019-04-11T04:45:10.140Z,6.61
2019-04-11T04:48:03.492Z,6.65
2019-04-11T04:50:48.922Z,6.57
2019-04-11T04:53:36.920Z,6.62
2019-04-11T04:56:29.522Z,6.43
2019-04-11T04:59:16.293Z,6.27
2019-04-11T05:02:06.234Z,6.16
2019-04-11T05:04:54.303Z,6.10
2019-04-11T05:07:46.031Z,6.04
2019-04-11T05:10:32.763Z,6.02
2019-04-11T05:13:23.944Z,6.01
2019-04-11T05:16:17.149Z,6.13
2019-04-11T05:19:01.912Z,5.98
2019-04-11T05:21:49.985Z,5.95
2019-04-11T05:24:41.150Z,5.87
2019-04-11T05:27:29.551Z,5.91
2019-04-11T05:30:18.791Z,5.66
2019-04-11T05:33:07.446Z,5.79
2019-04-11T05:35:56.395Z,5.88
2019-04-11T05:38:44.650Z,5.83
2019-04-11T05:41:33.557Z,5.85
2019-04-11T05:44:22.892Z,5.81
2019-04-11T05:47:14.526Z,5.78
2019-04-11T05:50:18.068Z,5.61
2019-04-11T05:53:05.811Z,5.58
2019-04-11T05:55:55.210Z,5.61
2019-04-11T05:58:47.002Z,5.74
2019-04-11T06:01:38.324Z,5.84
2019-04-11T06:04:40.481Z,5.84
2019-04-11T06:07:41.005Z,5.92
2019-04-11T06:10:33.828Z,5.88
2019-04-11T06:13:29.720Z,5.85
2019-04-11T06:16:18.743Z,5.85
2019-04-11T06:19:24.951Z,5.76
2019-04-11T06:22:13.519Z,5.90
2019-04-11T06:25:28.254Z,6.00
2019-04-11T06:28:28.847Z,6.03
2019-04-11T06:31:34.903Z,6.12
2019-04-11T06:34:24.971Z,6.20
2019-04-11T06:37:25.583Z,6.29
2019-04-11T06:40:27.730Z,6.36
2019-04-11T06:43:32.131Z,6.40
2019-04-11T06:46:54.482Z,6.49
2019-04-11T06:49:56.812Z,6.53
2019-04-11T06:52:45.569Z,6.48
2019-04-11T06:55:55.300Z,6.63
2019-04-11T06:58:47.837Z,6.73
2019-04-11T07:01:36.385Z,6.71
2019-04-11T07:04:33.576Z,6.82
2019-04-11T07:07:26.149Z,6.88
2019-04-11T07:10:13.670Z,6.86
2019-04-11T07:13:07.678Z,6.78
2019-04-11T07:15:57.574Z,6.94
2019-04-11T07:19:07.291Z,7.08
2019-04-11T07:21:56.070Z,7.18
2019-04-11T07:25:06.041Z,7.17
2019-04-11T07:28:03.643Z,7.15
2019-04-11T07:31:10.433Z,7.15
2019-04-11T07:34:35.187Z,7.26
2019-04-11T07:37:36.690Z,7.41
2019-04-11T07:40:56.184Z,7.43
2019-04-11T07:43:44.852Z,7.59
2019-04-11T07:46:51.610Z,7.82
2019-04-11T07:49:40.911Z,8.06
2019-04-11T07:52:31.367Z,8.31
2019-04-11T07:55:21.568Z,8.68
2019-04-11T07:58:28.533Z,8.97
2019-04-11T08:01:42.542Z,9.10
2019-04-11T08:04:57.562Z,9.16
2019-04-11T08:08:13.551Z,9.12
2019-04-11T08:11:21.301Z,9.18
2019-04-11T08:14:34.828Z,9.63
2019-04-11T08:17:35.560Z,9.97
2019-04-11T08:20:33.273Z,10.08
2019-04-11T08:23:23.474Z,10.37
2019-04-11T08:26:28.663Z,10.31
2019-04-11T08:29:18.031Z,10.36
2019-04-11T08:32:25.453Z,10.35
2019-04-11T08:35:33.179Z,10.31
2019-04-11T08:38:28.790Z,10.27
2019-04-11T08:41:34.201Z,10.13
2019-04-11T08:44:27.918Z,10.03
2019-04-11T08:47:18.387Z,10.21
2019-04-11T08:50:06.981Z,10.32
2019-04-11T08:53:14.064Z,10.41
2019-04-11T08:56:03.834Z,10.53
2019-04-11T08:59:46.131Z,10.84
2019-04-11T09:02:49.128Z,11.03
2019-04-11T09:06:08.549Z,11.18
2019-04-11T09:09:15.312Z,10.84
2019-04-11T09:12:06.444Z,11.38
2019-04-11T09:15:12.710Z,11.23
2019-04-11T09:18:09.223Z,11.30
2019-04-11T09:21:12.361Z,11.28
2019-04-11T09:24:01.938Z,11.27
2019-04-11T09:27:08.678Z,11.66
2019-04-11T09:29:59.899Z,11.37
2019-04-11T09:33:02.639Z,11.90
2019-04-11T09:35:52.259Z,12.38
2019-04-11T09:38:42.295Z,12.28
2019-04-11T09:41:50.335Z,12.68
2019-04-11T09:44:53.167Z,12.66
2019-04-11T09:48:09.401Z,12.73
2019-04-11T09:51:01.027Z,12.53
2019-04-11T09:53:54.922Z,12.87
2019-04-11T09:57:02.338Z,13.13
2019-04-11T10:00:22.492Z,12.94
2019-04-11T10:03:20.900Z,12.57
2019-04-11T10:06:36.876Z,12.52
2019-04-11T10:09:30.373Z,12.72
2019-04-11T10:12:56.215Z,12.84
2019-04-11T10:16:05.783Z,12.51
2019-04-11T10:19:05.571Z,12.88
2019-04-11T10:22:13.013Z,12.44
2019-04-11T10:25:23.640Z,12.31
2019-04-11T10:28:30.927Z,12.39
2019-04-11T10:31:20.688Z,12.47
2019-04-11T10:34:33.574Z,12.16
2019-04-11T10:37:21.932Z,12.52
2019-04-11T10:40:30.171Z,12.20
2019-04-11T10:43:18.772Z,12.53
2019-04-11T10:46:19.623Z,12.70
2019-04-11T10:49:28.348Z,13.40
2019-04-11T10:52:34.882Z,13.51
2019-04-11T10:55:27.792Z,13.32
2019-04-11T10:58:31.038Z,13.21
2019-04-11T11:01:50.888Z,12.66
2019-04-11T11:04:51.096Z,13.17
2019-04-11T11:07:41.203Z,13.13
2019-04-11T11:10:31.274Z,13.09
2019-04-11T11:13:56.849Z,12.77
2019-04-11T11:16:50.831Z,12.54
2019-04-11T11:20:20.829Z,13.34
2019-04-11T11:23:28.993Z,13.40
2019-04-11T11:26:27.939Z,13.85
2019-04-11T11:29:47.517Z,14.51
2019-04-11T11:32:39.008Z,13.91
2019-04-11T11:35:47.845Z,13.91
2019-04-11T11:38:35.832Z,14.27
2019-04-11T11:41:42.711Z,13.94
2019-04-11T11:44:37.316Z,14.17
2019-04-11T11:47:43.283Z,14.52
2019-04-11T11:50:33.504Z,13.87
2019-04-11T11:53:26.921Z,14.23
2019-04-11T11:56:15.850Z,14.19
2019-04-11T11:59:20.980Z,13.84
2019-04-11T12:02:15.761Z,13.39
2019-04-11T12:05:15.833Z,13.75
2019-04-11T12:08:24.613Z,14.20
2019-04-11T12:11:13.669Z,14.53
2019-04-11T12:14:33.051Z,13.99
2019-04-11T12:17:26.896Z,14.23
2019-04-11T12:20:27.155Z,14.16
2019-04-11T12:22:59.004Z,14.16
2019-04-11T12:25:34.078Z,14.21
2019-04-11T12:28:27.685Z,14.28
2019-04-11T12:31:03.725Z,14.84
2019-04-11T12:33:50.525Z,14.79
2019-04-11T12:36:23.464Z,14.90
2019-04-11T12:39:24.288Z,14.57
2019-04-11T12:42:00.823Z,14.63
2019-04-11T12:44:49.471Z,14.84
2019-04-11T12:47:45.012Z,14.86
2019-04-11T12:50:40.134Z,15.08
2019-04-11T12:53:12.054Z,15.01
2019-04-11T12:55:59.300Z,15.47
2019-04-11T12:58:32.390Z,15.59
2019-04-11T13:01:21.043Z,15.36
2019-04-11T13:04:09.721Z,15.36
2019-04-11T13:06:58.358Z,15.39
2019-04-11T13:09:50.168Z,14.67
2019-04-11T13:12:44.703Z,14.78
2019-04-11T13:15:31.961Z,15.09
2019-04-11T13:18:20.720Z,15.20
2019-04-11T13:20:57.738Z,15.17
2019-04-11T13:23:37.008Z,14.80
2019-04-11T13:26:38.392Z,14.94
2019-04-11T13:29:36.283Z,15.07
2019-04-11T13:32:25.341Z,15.54
2019-04-11T13:34:58.221Z,15.93
2019-04-11T13:37:45.835Z,15.33
2019-04-11T13:40:37.545Z,15.11
2019-04-11T13:43:32.596Z,14.53
2019-04-11T13:46:36.583Z,14.13
2019-04-11T13:49:25.396Z,14.16
2019-04-11T13:52:24.859Z,13.87
2019-04-11T13:55:00.965Z,14.26
2019-04-11T13:57:55.566Z,14.72
2019-04-11T14:00:46.313Z,14.72
2019-04-11T14:03:43.984Z,15.69
2019-04-11T14:06:39.448Z,15.44
2019-04-11T14:09:37.818Z,14.48
2019-04-11T14:12:11.615Z,13.71
2019-04-11T14:14:46.840Z,14.64
2019-04-11T14:17:35.594Z,15.26
2019-04-11T14:20:29.572Z,16.80
2019-04-11T14:23:17.323Z,18.03
2019-04-11T14:26:05.975Z,18.26
2019-04-11T14:28:42.381Z,18.56
2019-04-11T14:31:29.783Z,18.14
2019-04-11T14:34:05.511Z,17.59
2019-04-11T14:37:03.957Z,18.48
2019-04-11T14:39:36.614Z,19.18
2019-04-11T14:42:25.295Z,19.66
2019-04-11T14:44:55.219Z,20.48
2019-04-11T14:47:42.146Z,21.27
2019-04-11T14:50:12.576Z,20.79
2019-04-11T14:53:00.957Z,19.34
2019-04-11T14:55:31.011Z,17.21
2019-04-11T14:58:23.773Z,16.32
2019-04-11T15:00:54.457Z,16.16
2019-04-11T15:03:52.332Z,15.55
2019-04-11T15:06:32.423Z,14.86
2019-04-11T15:09:29.953Z,14.49
2019-04-11T15:12:03.290Z,14.05
2019-04-11T15:14:51.908Z,14.32
2019-04-11T15:17:27.998Z,13.88
2019-04-11T15:20:19.415Z,13.97
2019-04-11T15:23:02.396Z,13.72
2019-04-11T15:25:38.467Z,13.80
2019-04-11T15:28:43.916Z,13.75
2019-04-11T15:31:39.322Z,13.80
2019-04-11T15:34:20.565Z,13.84
2019-04-11T15:37:15.137Z,13.58
2019-04-11T15:40:06.847Z,13.63
2019-04-11T15:43:11.615Z,13.70
2019-04-11T15:45:47.309Z,13.70
2019-04-11T15:48:34.810Z,13.60
2019-04-11T15:51:22.139Z,13.49
2019-04-11T15:54:10.534Z,13.44
2019-04-11T15:56:59.250Z,13.36
2019-04-11T15:59:57.130Z,13.57
2019-04-11T16:02:44.955Z,13.64
2019-04-11T16:05:48.452Z,13.64
2019-04-11T16:08:45.963Z,13.61
2019-04-11T16:11:52.765Z,13.41
2019-04-11T16:14:37.545Z,13.35
2019-04-11T16:17:19.813Z,13.07
2019-04-11T16:20:06.987Z,13.19
2019-04-11T16:22:55.468Z,13.16
2019-04-11T16:25:28.949Z,13.20
2019-04-11T16:28:21.570Z,13.19
2019-04-11T16:30:53.123Z,13.10
2019-04-11T16:33:40.333Z,12.93
2019-04-11T16:36:27.242Z,13.02
2019-04-11T16:39:19.500Z,12.97
2019-04-11T16:42:01.611Z,13.13
2019-04-11T16:44:59.264Z,13.00
2019-04-11T16:47:41.580Z,12.84
2019-04-11T16:50:11.327Z,12.69
2019-04-11T16:52:41.699Z,12.38
2019-04-11T16:55:11.637Z,12.22
2019-04-11T16:57:43.856Z,11.95
2019-04-11T17:00:12.945Z,12.03
2019-04-11T17:02:42.737Z,11.88
2019-04-11T17:05:12.570Z,11.69
2019-04-11T17:08:00.404Z,11.52
2019-04-11T17:11:04.756Z,11.17
2019-04-11T17:13:34.605Z,11.09
2019-04-11T17:16:06.101Z,11.11
2019-04-11T17:18:35.845Z,11.09
2019-04-11T17:21:07.854Z,11.11
2019-04-11T17:23:40.239Z,10.98
2019-04-11T17:26:10.031Z,10.88
2019-04-11T17:28:39.768Z,10.94
2019-04-11T17:31:09.609Z,10.54
2019-04-11T17:33:39.460Z,10.54
2019-04-11T17:36:09.513Z,10.56
2019-04-11T17:38:39.253Z,10.65
2019-04-11T17:41:11.786Z,10.61
2019-04-11T17:43:42.191Z,10.68
2019-04-11T17:46:13.412Z,10.56
2019-04-11T17:48:43.163Z,10.66
2019-04-11T17:51:12.913Z,10.55
2019-04-11T17:53:42.853Z,10.70
2019-04-11T17:56:12.607Z,10.72
2019-04-11T17:58:42.359Z,10.65
2019-04-11T18:01:12.235Z,10.56
2019-04-11T18:03:42.622Z,10.56
2019-04-11T18:06:16.879Z,10.61
2019-04-11T18:08:46.623Z,10.55
2019-04-11T18:11:16.464Z,10.33
2019-04-11T18:13:46.291Z,10.13
2019-04-11T18:16:16.032Z,9.91
2019-04-11T18:18:48.439Z,9.92
2019-04-11T18:21:18.623Z,9.89
2019-04-11T18:23:50.071Z,9.72
2019-04-11T18:26:21.517Z,9.56
2019-04-11T18:28:52.753Z,9.41
2019-04-11T18:31:24.759Z,9.26
2019-04-11T18:33:53.890Z,9.27
2019-04-11T18:36:31.985Z,9.21
2019-04-11T18:39:05.823Z,9.31
2019-04-11T18:41:33.568Z,9.21
2019-04-11T18:44:03.323Z,9.24
2019-04-11T18:46:33.143Z,9.08
2019-04-11T18:49:08.619Z,9.07
2019-04-11T18:51:38.405Z,8.86
2019-04-11T18:54:08.248Z,8.77
2019-04-11T18:56:38.345Z,8.83
2019-04-11T18:59:08.334Z,8.64
2019-04-11T19:01:39.828Z,8.75
2019-04-11T19:04:11.748Z,8.62
2019-04-11T19:06:43.001Z,8.46
2019-04-11T19:09:14.756Z,8.45
2019-04-11T19:11:46.254Z,8.45
2019-04-11T19:14:16.734Z,8.42
2019-04-11T19:16:46.868Z,8.38
2019-04-11T19:19:18.389Z,8.35
2019-04-11T19:21:51.679Z,8.37
2019-04-11T19:24:21.650Z,8.29
2019-04-11T19:26:51.401Z,8.25
2019-04-11T19:29:24.781Z,8.24
2019-04-11T19:31:52.593Z,8.19
2019-04-11T19:34:23.911Z,8.03
2019-04-11T19:36:53.956Z,8.09
2019-04-11T19:39:23.880Z,8.04
2019-04-11T19:41:53.659Z,7.93
2019-04-11T19:44:23.720Z,7.80
2019-04-11T19:46:53.937Z,7.76
2019-04-11T19:49:23.750Z,7.65
2019-04-11T19:51:53.484Z,7.65
2019-04-11T19:54:23.406Z,7.54
2019-04-11T19:57:05.024Z,7.61
2019-04-11T19:59:52.903Z,7.65
2019-04-11T20:02:41.341Z,7.45
2019-04-11T20:05:30.371Z,7.50
2019-04-11T20:08:18.588Z,7.46
2019-04-11T20:11:06.473Z,7.46
2019-04-11T20:13:55.168Z,7.38
2019-04-11T20:16:47.619Z,7.33
2019-04-11T20:19:32.291Z,7.23
2019-04-11T20:22:20.907Z,7.35
2019-04-11T20:25:09.009Z,7.22
2019-04-11T20:27:57.629Z,7.17
2019-04-11T20:30:46.315Z,7.11
2019-04-11T20:33:34.862Z,7.07
2019-04-11T20:36:32.929Z,7.04
2019-04-11T20:39:15.013Z,7.03
2019-04-11T20:42:01.919Z,6.90
2019-04-11T20:44:50.322Z,7.04
2019-04-11T20:47:38.545Z,7.00
2019-04-11T20:50:29.755Z,6.97
2019-04-11T20:53:17.747Z,7.07
2019-04-11T20:56:09.564Z,6.56
2019-04-11T20:58:39.624Z,6.73
2019-04-11T21:01:08.679Z,6.83
2019-04-11T21:03:38.459Z,6.92
2019-04-11T21:06:08.222Z,7.03
2019-04-11T21:08:37.959Z,7.09
2019-04-11T21:11:07.804Z,7.22
2019-04-11T21:13:38.365Z,7.28
2019-04-11T21:16:07.950Z,7.33
2019-04-11T21:18:37.927Z,7.23
2019-04-11T21:21:07.772Z,7.31
2019-04-11T21:23:37.522Z,7.42
2019-04-11T21:26:08.070Z,7.50
2019-04-11T21:28:38.160Z,7.61
2019-04-11T21:31:08.134Z,7.66
2019-04-11T21:33:37.940Z,7.60
2019-04-11T21:36:08.188Z,7.51
2019-04-11T21:38:39.420Z,7.30
2019-04-11T21:41:09.178Z,7.48
2019-04-11T21:43:39.155Z,7.42
2019-04-11T21:46:11.055Z,7.71
2019-04-11T21:48:42.941Z,7.75
2019-04-11T21:51:13.701Z,7.72
2019-04-11T21:53:45.287Z,7.61
2019-04-11T21:56:15.942Z,7.53
2019-04-11T21:58:50.136Z,7.50
2019-04-11T22:01:27.002Z,7.50
2019-04-11T22:03:59.075Z,7.67
2019-04-11T22:06:30.500Z,7.46
2019-04-11T22:09:05.068Z,7.61
2019-04-11T22:11:34.912Z,7.57
2019-04-11T22:14:04.854Z,7.52
2019-04-11T22:16:34.587Z,7.67
2019-04-11T22:19:05.003Z,7.52
2019-04-11T22:21:34.742Z,7.37
2019-04-11T22:24:04.580Z,7.45
2019-04-11T22:26:34.383Z,7.19
2019-04-11T22:29:04.127Z,7.32
2019-04-11T22:31:33.873Z,7.45
2019-04-11T22:34:22.639Z,7.55
2019-04-11T22:36:52.392Z,7.58
2019-04-11T22:39:22.125Z,7.66
2019-04-11T22:41:51.894Z,7.69
2019-04-11T22:44:21.693Z,7.75
2019-04-11T22:46:51.391Z,7.82
2019-04-11T22:49:21.194Z,7.78
2019-04-11T22:51:50.983Z,7.74
2019-04-11T22:54:20.728Z,7.50
2019-04-11T22:56:50.605Z,7.56
2019-04-11T22:59:20.348Z,7.50
2019-04-11T23:01:50.805Z,7.34
2019-04-11T23:04:22.212Z,7.21
2019-04-11T23:06:52.034Z,7.06
2019-04-11T23:09:21.779Z,7.19
2019-04-11T23:11:51.606Z,7.23
2019-04-11T23:14:21.351Z,7.27
2019-04-11T23:16:52.088Z,7.27
2019-04-11T23:19:21.869Z,7.29
2019-04-11T23:21:51.611Z,7.40
2019-04-11T23:24:21.358Z,7.42
2019-04-11T23:26:51.635Z,7.47
2019-04-11T23:29:21.394Z,7.56
2019-04-11T23:31:51.312Z,7.61
2019-04-11T23:34:22.138Z,7.53
2019-04-11T23:36:52.648Z,7.48
2019-04-11T23:39:22.871Z,7.50
2019-04-11T23:41:53.526Z,7.52
2019-04-11T23:44:23.272Z,7.60
2019-04-11T23:46:53.022Z,7.55
2019-04-11T23:49:24.862Z,7.36
2019-04-11T23:51:55.868Z,7.49
2019-04-11T23:54:28.899Z,7.46
2019-04-11T23:57:00.501Z,7.40
2019-04-11T23:59:32.124Z,7.36
